Time,TemperatureF,DewpointF,PressureIn,WindDirection,WindDirectionDegrees,WindSpeedMPH,WindSpeedGustMPH,Humidity,HourlyPrecipIn,Conditions,Clouds,dailyrainin,SoftwareType,DateUTC
2013-09-10 00:12:00,48.0,47.0,-100.00,South,169,6.0,10.0,98,0.00,,,0.50,,2013-09-10 06:12:00,
2013-09-10 00:22:00,48.0,47.0,-100.00,South,169,6.0,10.0,98,0.00,,,0.50,,2013-09-10 06:22:00,
2013-09-10 00:32:00,48.0,47.0,-100.00,South,169,6.0,10.0,98,0.00,,,0.50,,2013-09-10 06:32:00,
2013-09-10 00:42:00,48.0,48.0,-100.00,SW,214,2.0,7.0,100,0.01,,,0.51,,2013-09-10 06:42:00,
2013-09-10 01:12:00,48.0,48.0,-100.00,SW,214,2.0,7.0,100,0.01,,,0.51,,2013-09-10 07:12:00,
2013-09-10 01:21:00,48.0,48.0,-100.00,SW,214,2.0,7.0,100,0.01,,,0.51,,2013-09-10 07:21:00,
2013-09-10 01:32:00,48.0,48.0,-100.00,SW,214,2.0,7.0,100,0.01,,,0.51,,2013-09-10 07:32:00,
2013-09-10 01:42:00,48.0,48.0,-100.00,SSW,201,3.0,6.0,99,0.03,,,0.54,,2013-09-10 07:42:00,
2013-09-10 02:12:00,48.0,48.0,-100.00,SSW,201,3.0,6.0,99,0.03,,,0.54,,2013-09-10 08:12:00,
2013-09-10 02:22:00,48.0,48.0,-100.00,SSW,201,3.0,6.0,99,0.03,,,0.54,,2013-09-10 08:22:00,
2013-09-10 02:32:00,48.0,48.0,-100.00,SSW,201,3.0,6.0,99,0.03,,,0.54,,2013-09-10 08:32:00,
2013-09-10 02:42:00,48.0,47.0,-100.00,East,99,3.0,6.0,98,0.03,,,0.57,,2013-09-10 08:42:00,
2013-09-10 03:11:00,48.0,47.0,-100.00,East,99,3.0,6.0,98,0.03,,,0.57,,2013-09-10 09:11:00,
2013-09-10 03:21:00,48.0,47.0,-100.00,East,99,3.0,6.0,98,0.03,,,0.57,,2013-09-10 09:21:00,
2013-09-10 03:33:00,48.0,47.0,-100.00,East,99,3.0,6.0,98,0.03,,,0.57,,2013-09-10 09:33:00,
2013-09-10 03:42:00,48.0,48.0,-100.00,East,92,5.0,9.0,100,0.02,,,0.59,,2013-09-10 09:42:00,
2013-09-10 04:13:00,48.0,48.0,-100.00,East,92,5.0,9.0,100,0.02,,,0.59,,2013-09-10 10:13:00,
2013-09-10 04:23:00,48.0,48.0,-100.00,East,92,5.0,9.0,100,0.02,,,0.59,,2013-09-10 10:23:00,
2013-09-10 04:33:00,48.0,48.0,-100.00,East,92,5.0,9.0,100,0.02,,,0.59,,2013-09-10 10:33:00,
2013-09-10 04:42:00,49.0,47.0,-100.00,ESE,106,6.0,11.0,92,0.00,,,0.59,,2013-09-10 10:42:00,
2013-09-10 05:12:00,49.0,47.0,-100.00,ESE,106,6.0,11.0,92,0.00,,,0.59,,2013-09-10 11:12:00,
2013-09-10 05:22:00,49.0,47.0,-100.00,ESE,106,6.0,11.0,92,0.00,,,0.59,,2013-09-10 11:22:00,
2013-09-10 05:33:00,49.0,47.0,-100.00,ESE,106,6.0,11.0,92,0.00,,,0.59,,2013-09-10 11:33:00,
2013-09-10 07:42:00,51.0,47.0,-100.00,ESE,123,6.0,13.0,85,-99.99,,,0.57,,2013-09-10 13:42:00,
2013-09-10 08:11:00,51.0,47.0,-100.00,ESE,123,6.0,13.0,85,-99.99,,,0.57,,2013-09-10 14:11:00,
2013-09-10 08:21:00,51.0,47.0,-100.00,ESE,123,6.0,13.0,85,-99.99,,,0.57,,2013-09-10 14:21:00,
2013-09-10 08:32:00,51.0,47.0,-100.00,ESE,123,6.0,13.0,85,-99.99,,,0.57,,2013-09-10 14:32:00,
2013-09-10 08:42:00,52.0,46.0,-100.00,SE,124,6.0,11.0,80,0.00,,,0.54,,2013-09-10 14:42:00,
2013-09-10 09:11:00,52.0,46.0,-100.00,SE,124,6.0,11.0,80,0.00,,,0.54,,2013-09-10 15:11:00,
2013-09-10 09:22:00,52.0,46.0,-100.00,SE,124,6.0,11.0,80,0.00,,,0.54,,2013-09-10 15:22:00,
2013-09-10 09:34:00,52.0,46.0,-100.00,SE,124,6.0,11.0,80,0.00,,,0.54,,2013-09-10 15:34:00,
2013-09-10 09:42:00,53.0,49.0,-100.00,SE,129,4.0,11.0,86,0.00,,,0.51,,2013-09-10 15:42:00,
2013-09-10 10:13:00,53.0,49.0,-100.00,SE,129,4.0,11.0,86,0.00,,,0.51,,2013-09-10 16:13:00,
2013-09-10 10:23:00,53.0,49.0,-100.00,SE,129,4.0,11.0,86,0.00,,,0.51,,2013-09-10 16:23:00,
2013-09-10 10:33:00,53.0,49.0,-100.00,SE,129,4.0,11.0,86,0.00,,,0.51,,2013-09-10 16:33:00,
2013-09-10 10:42:00,55.0,49.0,-100.00,NE,49,2.0,5.0,81,0.00,,,0.45,,2013-09-10 16:42:00,
2013-09-10 11:12:00,55.0,49.0,-100.00,NE,49,2.0,5.0,81,0.00,,,0.45,,2013-09-10 17:12:00,
2013-09-10 11:23:00,55.0,49.0,-100.00,NE,49,2.0,5.0,81,0.00,,,0.45,,2013-09-10 17:23:00,
2013-09-10 11:33:00,55.0,49.0,-100.00,NE,49,2.0,5.0,81,0.00,,,0.45,,2013-09-10 17:33:00,
2013-09-10 11:42:00,55.0,49.0,-100.00,NNW,331,4.0,7.0,80,0.00,,,0.41,,2013-09-10 17:42:00,
2013-09-10 12:12:00,55.0,49.0,-100.00,NNW,331,4.0,7.0,80,0.00,,,0.41,,2013-09-10 18:12:00,
2013-09-10 12:21:00,55.0,49.0,-100.00,NNW,331,4.0,7.0,80,0.00,,,0.41,,2013-09-10 18:21:00,
2013-09-10 12:32:00,55.0,49.0,-100.00,NNW,331,4.0,7.0,80,0.00,,,0.41,,2013-09-10 18:32:00,
2013-09-10 12:42:00,55.0,51.0,-100.00,NW,319,5.0,9.0,86,0.00,,,-99.99,,2013-09-10 18:42:00,
2013-09-10 13:11:00,55.0,51.0,-100.00,NW,319,5.0,9.0,86,0.00,,,-99.99,,2013-09-10 19:11:00,
2013-09-10 13:21:00,55.0,51.0,-100.00,NW,319,5.0,9.0,86,0.00,,,-99.99,,2013-09-10 19:21:00,
2013-09-10 13:32:00,55.0,51.0,-100.00,NW,319,5.0,9.0,86,0.00,,,-99.99,,2013-09-10 19:32:00,
2013-09-10 13:42:00,54.0,51.0,-100.00,NNW,334,6.0,10.0,89,0.00,,,0.34,,2013-09-10 19:42:00,
2013-09-10 14:11:00,54.0,51.0,-100.00,NNW,334,6.0,10.0,89,0.00,,,0.34,,2013-09-10 20:11:00,
2013-09-10 14:21:00,54.0,51.0,-100.00,NNW,334,6.0,10.0,89,0.00,,,0.34,,2013-09-10 20:21:00,
2013-09-10 14:32:00,54.0,51.0,-100.00,NNW,334,6.0,10.0,89,0.00,,,0.34,,2013-09-10 20:32:00,
2013-09-10 14:42:00,52.0,51.0,-100.00,WNW,302,5.0,9.0,95,0.03,,,0.25,,2013-09-10 20:42:00,
2013-09-10 15:11:00,52.0,51.0,-100.00,WNW,302,5.0,9.0,95,0.03,,,0.25,,2013-09-10 21:11:00,
2013-09-10 15:23:00,52.0,51.0,-100.00,WNW,302,5.0,9.0,95,0.03,,,0.25,,2013-09-10 21:23:00,
2013-09-10 15:33:00,52.0,51.0,-100.00,WNW,302,5.0,9.0,95,0.03,,,0.25,,2013-09-10 21:33:00,
2013-09-10 15:42:00,54.0,53.0,-100.00,North,359,4.0,10.0,95,0.01,,,0.16,,2013-09-10 21:42:00,
2013-09-10 16:13:00,54.0,53.0,-100.00,North,359,4.0,10.0,95,0.01,,,0.16,,2013-09-10 22:13:00,
2013-09-10 16:24:00,54.0,53.0,-100.00,North,359,4.0,10.0,95,0.01,,,0.16,,2013-09-10 22:24:00,
2013-09-10 16:33:00,54.0,53.0,-100.00,North,359,4.0,10.0,95,0.01,,,0.16,,2013-09-10 22:33:00,
2013-09-10 16:42:00,55.0,52.0,-100.00,NNE,17,5.0,9.0,90,0.00,,,0.15,,2013-09-10 22:42:00,
2013-09-10 17:13:00,55.0,52.0,-100.00,NNE,17,5.0,9.0,90,0.00,,,0.15,,2013-09-10 23:13:00,
2013-09-10 17:22:00,55.0,52.0,-100.00,NNE,17,5.0,9.0,90,0.00,,,0.15,,2013-09-10 23:22:00,
2013-09-10 17:34:00,55.0,52.0,-100.00,NNE,17,5.0,9.0,90,0.00,,,0.15,,2013-09-10 23:34:00,
2013-09-10 17:42:00,54.0,52.0,-100.00,NNW,338,3.0,8.0,92,0.00,,,0.14,,2013-09-10 23:42:00,
2013-09-10 18:11:00,54.0,52.0,-100.00,NNW,338,3.0,8.0,92,0.00,,,0.14,,2013-09-11 00:11:00,
2013-09-10 18:22:00,54.0,52.0,-100.00,NNW,338,3.0,8.0,92,0.00,,,0.14,,2013-09-11 00:22:00,
2013-09-10 18:32:00,54.0,52.0,-100.00,NNW,338,3.0,8.0,92,0.00,,,0.14,,2013-09-11 00:32:00,
2013-09-10 19:11:00,53.0,52.0,-100.00,NNW,347,3.0,8.0,95,0.00,,,0.13,,2013-09-11 01:11:00,
2013-09-10 19:21:00,53.0,52.0,-100.00,NNW,347,3.0,8.0,95,0.00,,,0.13,,2013-09-11 01:21:00,
2013-09-10 19:32:00,53.0,52.0,-100.00,NNW,347,3.0,8.0,95,0.00,,,0.13,,2013-09-11 01:32:00,
2013-09-10 19:41:00,53.0,52.0,-100.00,NNW,347,3.0,8.0,95,0.00,,,0.13,,2013-09-11 01:41:00,
2013-09-10 19:42:00,52.0,51.0,-100.00,NW,324,3.0,7.0,97,0.00,,,0.13,,2013-09-11 01:42:00,
2013-09-10 20:11:00,52.0,51.0,-100.00,NW,324,3.0,7.0,97,0.00,,,0.13,,2013-09-11 02:11:00,
2013-09-10 20:22:00,52.0,51.0,-100.00,NW,324,3.0,7.0,97,0.00,,,0.13,,2013-09-11 02:22:00,
2013-09-10 20:32:00,52.0,51.0,-100.00,NW,324,3.0,7.0,97,0.00,,,0.13,,2013-09-11 02:32:00,
2013-09-10 20:42:00,51.0,49.0,-100.00,ESE,107,4.0,7.0,94,0.00,,,0.13,,2013-09-11 02:42:00,
2013-09-10 21:12:00,51.0,49.0,-100.00,ESE,107,4.0,7.0,94,0.00,,,0.13,,2013-09-11 03:12:00,
2013-09-10 21:22:00,51.0,49.0,-100.00,ESE,107,4.0,7.0,94,0.00,,,0.13,,2013-09-11 03:22:00,
2013-09-10 21:34:00,51.0,49.0,-100.00,ESE,107,4.0,7.0,94,0.00,,,0.13,,2013-09-11 03:34:00,
2013-09-10 21:42:00,52.0,49.0,-100.00,SSE,149,5.0,9.0,89,0.00,,,-99.99,,2013-09-11 03:42:00,
2013-09-10 22:14:00,52.0,49.0,-100.00,SSE,149,5.0,9.0,89,0.00,,,-99.99,,2013-09-11 04:14:00,
2013-09-10 22:24:00,52.0,49.0,-100.00,SSE,149,5.0,9.0,89,0.00,,,-99.99,,2013-09-11 04:24:00,
2013-09-10 22:33:00,52.0,49.0,-100.00,SSE,149,5.0,9.0,89,0.00,,,-99.99,,2013-09-11 04:33:00,
2013-09-10 22:42:00,53.0,49.0,-100.00,SE,143,4.0,10.0,87,0.00,,,0.13,,2013-09-11 04:42:00,
2013-09-10 23:12:00,53.0,49.0,-100.00,SE,143,4.0,10.0,87,0.00,,,0.13,,2013-09-11 05:12:00,
2013-09-10 23:22:00,53.0,49.0,-100.00,SE,143,4.0,10.0,87,0.00,,,0.13,,2013-09-11 05:22:00,
2013-09-10 23:33:00,53.0,49.0,-100.00,SE,143,4.0,10.0,87,0.00,,,0.13,,2013-09-11 05:33:00,
2013-09-10 23:42:00,52.0,50.0,-100.00,SE,127,5.0,11.0,93,0.00,,,0.13,,2013-09-11 05:42:00,